KEOK/EOK METAR and TAF weather

Enter ICAO airport designator
Station Type Date Time Source
KEOK METAR 2021/04/18 03:35 UTC NOAA

KEOK 180335Z AUTO 22004KT 10SM CLR 08/06 A2997 RMK AO2


Station Type Date Time Source
KEOK Decoded METAR 2021/04/18 03:35 UTC NOAA

Keokuk Municipal, IA, United States (KEOK) 40-28N 091-26W
Apr 17, 2021 - 11:35 PM EDT / 2021.04.18 0335 UTC
Wind: from the SW (220 degrees) at 5 MPH (4 KT):0
Visibility: 10 mile(s):0
Sky conditions: clear
Temperature: 46 F (8 C)
Dew Point: 42 F (6 C)
Relative Humidity: 87%
Pressure (altimeter): 29.97 in. Hg (1014 hPa)
ob: KEOK 180335Z AUTO 22004KT 10SM CLR 08/06 A2997 RMK AO2
cycle: 3

Station Type Date Time Source
KEOK TAF UTC NOAA

Error!

Example: see airport list